createdAt,value
2019-02-22T00:00:06.941Z,1020.54
2019-02-22T00:01:06.931Z,1020.62
2019-02-22T00:02:06.918Z,1020.58
2019-02-22T00:03:06.908Z,1020.59
2019-02-22T00:04:07.225Z,1020.67
2019-02-22T00:05:06.886Z,1020.64
2019-02-22T00:06:06.875Z,1020.66
2019-02-22T00:07:06.864Z,1020.65
2019-02-22T00:08:06.854Z,1020.65
2019-02-22T00:09:06.843Z,1020.64
2019-02-22T00:10:07.119Z,1020.64
2019-02-22T00:11:06.821Z,1020.77
2019-02-22T00:12:06.810Z,1020.76
2019-02-22T00:13:06.798Z,1020.76
2019-02-22T00:14:06.786Z,1020.78
2019-02-22T00:15:06.776Z,1020.80
2019-02-22T00:16:07.031Z,1020.86
2019-02-22T00:17:06.753Z,1020.86
2019-02-22T00:18:06.751Z,1020.85
2019-02-22T00:19:06.730Z,1020.87
2019-02-22T00:20:06.720Z,1020.86
2019-02-22T00:21:06.708Z,1020.90
2019-02-22T00:22:06.718Z,1020.92
2019-02-22T00:23:06.686Z,1020.95
2019-02-22T00:24:06.675Z,1020.96
2019-02-22T00:25:06.665Z,1020.96
2019-02-22T00:26:06.653Z,1020.96
2019-02-22T00:27:06.641Z,1020.95
2019-02-22T00:28:06.638Z,1021.01
2019-02-22T00:29:06.622Z,1020.97
2019-02-22T00:30:06.610Z,1021.01
2019-02-22T00:31:06.598Z,1021.05
2019-02-22T00:32:06.586Z,1021.02
2019-02-22T00:33:06.575Z,1021.07
2019-02-22T00:34:08.822Z,1021.02
2019-02-22T00:35:06.662Z,1021.05
2019-02-22T00:36:06.703Z,1021.07
2019-02-22T00:37:06.531Z,1021.12
2019-02-22T00:38:06.521Z,1021.14
2019-02-22T00:39:06.509Z,1021.14
2019-02-22T00:40:06.778Z,1021.17
2019-02-22T00:41:06.488Z,1021.16
2019-02-22T00:42:06.477Z,1021.20
2019-02-22T00:43:06.467Z,1021.23
2019-02-22T00:44:06.458Z,1021.18
2019-02-22T00:45:06.443Z,1021.18
2019-02-22T00:46:06.716Z,1021.18
2019-02-22T00:47:06.421Z,1021.18
2019-02-22T00:48:06.410Z,1021.20
2019-02-22T00:49:06.398Z,1021.23
2019-02-22T00:50:06.388Z,1021.24
2019-02-22T00:51:06.376Z,1021.23
2019-02-22T00:52:06.694Z,1021.26
2019-02-22T00:53:06.355Z,1021.29
2019-02-22T00:54:06.345Z,1021.33
2019-02-22T00:55:06.333Z,1021.27
2019-02-22T00:56:06.321Z,1021.32
2019-02-22T00:57:06.310Z,1021.32
2019-02-22T00:58:06.574Z,1021.31
2019-02-22T00:59:06.288Z,1021.34
2019-02-22T01:00:06.278Z,1021.35
2019-02-22T01:01:06.265Z,1021.35
2019-02-22T01:02:06.253Z,1021.36
2019-02-22T01:03:06.243Z,1021.39
2019-02-22T01:04:06.540Z,1021.41
2019-02-22T01:05:06.225Z,1021.38
2019-02-22T01:06:06.211Z,1021.40
2019-02-22T01:07:06.199Z,1021.40
2019-02-22T01:08:06.187Z,1021.44
2019-02-22T01:09:06.175Z,1021.45
2019-02-22T01:10:06.171Z,1021.46
2019-02-22T01:11:06.157Z,1021.52
2019-02-22T01:12:06.151Z,1021.53
2019-02-22T01:13:06.132Z,1021.56
2019-02-22T01:14:06.121Z,1021.58
2019-02-22T01:15:06.110Z,1021.60
2019-02-22T01:16:06.427Z,1021.61
2019-02-22T01:17:06.088Z,1021.61
2019-02-22T01:18:06.077Z,1021.63
2019-02-22T01:19:06.066Z,1021.69
2019-02-22T01:20:06.061Z,1021.67
2019-02-22T01:21:06.044Z,1021.73
2019-02-22T01:22:06.310Z,1021.70
2019-02-22T01:23:06.023Z,1021.78
2019-02-22T01:24:06.010Z,1021.72
2019-02-22T01:25:06.002Z,1021.81
2019-02-22T01:26:05.989Z,1021.81
2019-02-22T01:27:05.977Z,1021.83
2019-02-22T01:28:06.258Z,1021.90
2019-02-22T01:29:05.956Z,1021.86
2019-02-22T01:30:05.945Z,1021.93
2019-02-22T01:31:05.933Z,1021.97
2019-02-22T01:32:05.922Z,1022.00
2019-02-22T01:33:05.911Z,1021.99
2019-02-22T01:34:06.245Z,1022.05
2019-02-22T01:35:05.889Z,1022.05
2019-02-22T01:36:05.913Z,1022.06
2019-02-22T01:37:05.868Z,1022.05
2019-02-22T01:38:05.856Z,1022.07
2019-02-22T01:39:05.882Z,1022.08
2019-02-22T01:40:06.033Z,1022.04
2019-02-22T01:41:05.822Z,1022.09
2019-02-22T01:42:05.812Z,1022.08
2019-02-22T01:43:05.801Z,1022.10
2019-02-22T01:44:05.790Z,1022.15
2019-02-22T01:45:05.778Z,1022.15
2019-02-22T01:46:05.776Z,1022.14
2019-02-22T01:47:05.756Z,1022.20
2019-02-22T01:48:05.745Z,1022.15
2019-02-22T01:49:05.734Z,1022.22
2019-02-22T01:50:05.726Z,1022.22
2019-02-22T01:51:05.714Z,1022.24
2019-02-22T01:52:05.991Z,1022.33
2019-02-22T01:53:05.690Z,1022.29
2019-02-22T01:54:05.679Z,1022.35
2019-02-22T01:55:05.668Z,1022.34
2019-02-22T01:56:05.656Z,1022.32
2019-02-22T01:57:05.698Z,1022.37
2019-02-22T01:58:05.645Z,1022.39
2019-02-22T01:59:05.623Z,1022.42
2019-02-22T02:00:05.612Z,1022.42
2019-02-22T02:01:05.603Z,1022.42
2019-02-22T02:02:05.591Z,1022.47
2019-02-22T02:03:05.580Z,1022.43
2019-02-22T02:04:05.587Z,1022.43
2019-02-22T02:05:05.559Z,1022.47
2019-02-22T02:06:05.546Z,1022.53
2019-02-22T02:07:05.535Z,1022.51
2019-02-22T02:08:05.524Z,1022.53
2019-02-22T02:09:05.513Z,1022.51
2019-02-22T02:10:05.522Z,1022.47
2019-02-22T02:11:05.490Z,1022.53
2019-02-22T02:12:05.480Z,1022.57
2019-02-22T02:13:05.468Z,1022.56
2019-02-22T02:14:05.457Z,1022.56
2019-02-22T02:15:05.449Z,1022.58
2019-02-22T02:16:05.830Z,1022.52
2019-02-22T02:17:05.424Z,1022.55
2019-02-22T02:18:05.415Z,1022.58
2019-02-22T02:19:05.402Z,1022.61
2019-02-22T02:20:05.409Z,1022.63
2019-02-22T02:21:05.380Z,1022.69
2019-02-22T02:22:05.702Z,1022.66
2019-02-22T02:23:05.357Z,1022.75
2019-02-22T02:24:05.347Z,1022.72
2019-02-22T02:25:05.336Z,1022.75
2019-02-22T02:26:05.325Z,1022.76
2019-02-22T02:27:05.313Z,1022.78
2019-02-22T02:28:05.581Z,1022.79
2019-02-22T02:29:05.292Z,1022.76
2019-02-22T02:30:05.281Z,1022.83
2019-02-22T02:31:05.270Z,1022.87
2019-02-22T02:32:05.263Z,1022.90
2019-02-22T02:33:05.249Z,1022.90
2019-02-22T02:34:05.521Z,1022.87
2019-02-22T02:35:05.225Z,1022.90
2019-02-22T02:36:05.218Z,1022.96
2019-02-22T02:37:05.205Z,1022.96
2019-02-22T02:38:05.196Z,1022.93
2019-02-22T02:39:05.183Z,1022.95
2019-02-22T02:40:05.176Z,1022.93
2019-02-22T02:41:10.881Z,1022.97
2019-02-22T02:42:06.146Z,1022.98
2019-02-22T02:43:05.146Z,1023.02
2019-02-22T02:44:05.131Z,1023.03
2019-02-22T02:45:05.115Z,1023.10
2019-02-22T02:46:05.870Z,1023.06
2019-02-22T02:47:05.092Z,1023.09
2019-02-22T02:48:05.081Z,1023.15
2019-02-22T02:49:05.076Z,1023.11
2019-02-22T02:50:05.059Z,1023.09
2019-02-22T02:51:05.050Z,1023.18
2019-02-22T02:52:05.061Z,1023.13
2019-02-22T02:53:05.029Z,1023.21
2019-02-22T02:54:05.015Z,1023.18
2019-02-22T02:55:05.004Z,1023.19
2019-02-22T02:56:04.992Z,1023.15
2019-02-22T02:57:04.983Z,1023.18
2019-02-22T02:58:05.248Z,1023.20
2019-02-22T02:59:04.958Z,1023.21
2019-02-22T03:00:04.947Z,1023.25
2019-02-22T03:01:04.937Z,1023.28
2019-02-22T03:02:04.926Z,1023.29
2019-02-22T03:03:04.919Z,1023.33
2019-02-22T03:04:04.923Z,1023.33
2019-02-22T03:05:04.895Z,1023.35
2019-02-22T03:06:04.886Z,1023.37
2019-02-22T03:07:04.877Z,1023.38
2019-02-22T03:08:04.860Z,1023.43
2019-02-22T03:09:04.849Z,1023.47
2019-02-22T03:10:04.860Z,1023.43
2019-02-22T03:11:04.829Z,1023.47
2019-02-22T03:12:04.825Z,1023.45
2019-02-22T03:13:04.803Z,1023.46
2019-02-22T03:14:04.793Z,1023.51
2019-02-22T03:15:04.784Z,1023.51
2019-02-22T03:16:04.778Z,1023.53
2019-02-22T03:17:04.759Z,1023.55
2019-02-22T03:18:04.750Z,1023.52
2019-02-22T03:19:04.737Z,1023.54
2019-02-22T03:20:04.726Z,1023.55
2019-02-22T03:21:04.717Z,1023.61
2019-02-22T03:22:04.984Z,1023.61
2019-02-22T03:23:04.707Z,1023.57
2019-02-22T03:24:04.683Z,1023.58
2019-02-22T03:25:04.678Z,1023.59
2019-02-22T03:26:04.664Z,1023.57
2019-02-22T03:27:04.651Z,1023.57
2019-02-22T03:28:04.974Z,1023.52
2019-02-22T03:29:04.635Z,1023.58
2019-02-22T03:30:04.615Z,1023.62
2019-02-22T03:31:04.631Z,1023.64
2019-02-22T03:32:04.606Z,1023.68
2019-02-22T03:33:04.587Z,1023.71
2019-02-22T03:34:04.854Z,1023.74
2019-02-22T03:35:04.561Z,1023.79
2019-02-22T03:36:04.549Z,1023.78
2019-02-22T03:37:04.540Z,1023.77
2019-02-22T03:38:05.967Z,1023.80
2019-02-22T03:39:04.516Z,1023.81
2019-02-22T03:40:04.511Z,1023.86
2019-02-22T03:41:04.504Z,1023.84
2019-02-22T03:42:04.482Z,1023.84
2019-02-22T03:43:04.470Z,1023.87
2019-02-22T03:44:04.461Z,1023.89
2019-02-22T03:45:04.451Z,1023.89
2019-02-22T03:46:04.459Z,1023.95
2019-02-22T03:47:04.428Z,1024.00
2019-02-22T03:48:04.417Z,1024.01
2019-02-22T03:49:04.409Z,1024.02
2019-02-22T03:50:04.395Z,1024.08
2019-02-22T03:51:04.383Z,1024.12
2019-02-22T03:52:04.379Z,1024.13
2019-02-22T03:53:04.362Z,1024.13
2019-02-22T03:54:04.350Z,1024.15
2019-02-22T03:55:04.339Z,1024.16
2019-02-22T03:56:04.343Z,1024.18
2019-02-22T03:57:04.317Z,1024.22
2019-02-22T03:58:04.587Z,1024.26
2019-02-22T03:59:04.295Z,1024.30
2019-02-22T04:00:04.367Z,1024.39
2019-02-22T04:01:04.279Z,1024.37
2019-02-22T04:02:04.266Z,1024.39
2019-02-22T04:03:04.251Z,1024.41
2019-02-22T04:04:04.522Z,1024.51
2019-02-22T04:05:04.228Z,1024.50
2019-02-22T04:06:04.217Z,1024.47
2019-02-22T04:07:04.206Z,1024.55
2019-02-22T04:08:07.021Z,1024.56
2019-02-22T04:09:04.186Z,1024.60
2019-02-22T04:10:04.498Z,1024.61
2019-02-22T04:11:04.161Z,1024.65
2019-02-22T04:12:04.152Z,1024.69
2019-02-22T04:13:04.138Z,1024.66
2019-02-22T04:14:04.130Z,1024.73
2019-02-22T04:15:04.117Z,1024.76
2019-02-22T04:16:04.114Z,1024.79
2019-02-22T04:17:04.095Z,1024.81
2019-02-22T04:18:04.085Z,1024.89
2019-02-22T04:19:04.075Z,1024.91
2019-02-22T04:20:04.063Z,1024.96
2019-02-22T04:21:04.051Z,1024.96
2019-02-22T04:22:04.060Z,1025.00
2019-02-22T04:23:04.029Z,1024.99
2019-02-22T04:24:04.017Z,1025.02
2019-02-22T04:25:04.007Z,1025.07
2019-02-22T04:26:03.996Z,1025.12
2019-02-22T04:27:03.987Z,1025.11
2019-02-22T04:28:04.083Z,1025.18
2019-02-22T04:29:03.962Z,1025.20
2019-02-22T04:30:03.951Z,1025.21
2019-02-22T04:31:03.942Z,1025.26
2019-02-22T04:32:03.929Z,1025.28
2019-02-22T04:33:03.918Z,1025.31
2019-02-22T04:34:04.237Z,1025.34
2019-02-22T04:35:03.896Z,1025.36
2019-02-22T04:36:03.886Z,1025.39
2019-02-22T04:37:03.874Z,1025.41
2019-02-22T04:38:03.862Z,1025.46
2019-02-22T04:39:03.852Z,1025.49
2019-02-22T04:40:04.105Z,1025.53
2019-02-22T04:41:03.866Z,1025.58
2019-02-22T04:42:03.819Z,1025.58
2019-02-22T04:43:03.807Z,1025.72
2019-02-22T04:44:03.798Z,1025.74
2019-02-22T04:45:03.787Z,1025.77
2019-02-22T04:46:03.785Z,1025.74
2019-02-22T04:47:03.763Z,1025.82
2019-02-22T04:48:03.752Z,1025.86
2019-02-22T04:49:03.742Z,1025.87
2019-02-22T04:50:03.731Z,1026.12
2019-02-22T04:51:03.722Z,1025.95
2019-02-22T04:52:03.715Z,1026.02
2019-02-22T04:53:03.697Z,1026.04
2019-02-22T04:54:03.686Z,1026.05
2019-02-22T04:55:03.676Z,1026.10
2019-02-22T04:56:03.671Z,1026.07
2019-02-22T04:57:03.656Z,1026.14
2019-02-22T04:58:03.917Z,1026.15
2019-02-22T04:59:03.632Z,1026.15
2019-02-22T05:00:03.621Z,1026.29
2019-02-22T05:01:03.610Z,1026.30
2019-02-22T05:02:03.597Z,1026.33
2019-02-22T05:03:03.586Z,1026.30
2019-02-22T05:04:03.854Z,1026.36
2019-02-22T05:05:03.565Z,1026.42
2019-02-22T05:06:03.554Z,1026.38
2019-02-22T05:07:03.541Z,1026.38
2019-02-22T05:08:03.531Z,1026.40
2019-02-22T05:09:03.519Z,1026.43
2019-02-22T05:10:03.858Z,1026.42
2019-02-22T05:11:03.508Z,1026.49
2019-02-22T05:12:10.846Z,1026.50
2019-02-22T05:13:04.473Z,1026.57
2019-02-22T05:14:03.465Z,1026.61
2019-02-22T05:15:11.946Z,1026.60
2019-02-22T05:16:04.449Z,1026.65
2019-02-22T05:17:03.433Z,1026.65
2019-02-22T05:18:03.420Z,1026.61
2019-02-22T05:19:03.433Z,1026.72
2019-02-22T05:20:03.399Z,1026.71
2019-02-22T05:21:03.391Z,1026.74
2019-02-22T05:22:03.396Z,1026.79
2019-02-22T05:23:06.490Z,1026.79
2019-02-22T05:24:03.353Z,1026.87
2019-02-22T05:25:03.346Z,1026.90
2019-02-22T05:26:03.333Z,1026.93
2019-02-22T05:27:03.323Z,1026.95
2019-02-22T05:28:03.638Z,1027.08
2019-02-22T05:29:03.299Z,1027.00
2019-02-22T05:30:03.291Z,1027.03
2019-02-22T05:31:03.279Z,1027.02
2019-02-22T05:32:03.266Z,1027.10
2019-02-22T05:33:03.258Z,1027.21
2019-02-22T05:34:03.543Z,1027.20
2019-02-22T05:35:03.234Z,1027.35
2019-02-22T05:36:03.221Z,1027.30
2019-02-22T05:37:03.210Z,1027.30
2019-02-22T05:38:03.198Z,1027.31
2019-02-22T05:39:03.189Z,1027.36
2019-02-22T05:40:03.460Z,1027.34
2019-02-22T05:41:03.165Z,1027.42
2019-02-22T05:42:03.158Z,1027.41
2019-02-22T05:43:03.148Z,1027.45
2019-02-22T05:44:03.133Z,1027.52
2019-02-22T05:45:03.121Z,1027.48
2019-02-22T05:46:03.385Z,1027.68
2019-02-22T05:47:03.099Z,1027.52
2019-02-22T05:48:03.119Z,1027.65
2019-02-22T05:49:03.080Z,1027.57
2019-02-22T05:50:03.070Z,1027.55
2019-02-22T05:51:03.056Z,1027.69
2019-02-22T05:52:03.330Z,1027.60
2019-02-22T05:53:03.045Z,1027.64
2019-02-22T05:54:03.098Z,1027.66
2019-02-22T05:55:03.013Z,1027.65
2019-02-22T05:56:03.000Z,1027.72
2019-02-22T05:57:02.992Z,1027.71
2019-02-22T05:58:02.985Z,1027.76
2019-02-22T05:59:02.966Z,1027.77
2019-02-22T06:00:02.957Z,1027.77
2019-02-22T06:01:03.028Z,1027.81
2019-02-22T06:02:02.935Z,1027.85
2019-02-22T06:03:02.922Z,1027.90
2019-02-22T06:04:02.934Z,1027.90
2019-02-22T06:05:02.900Z,1027.95
2019-02-22T06:06:02.888Z,1028.13
2019-02-22T06:07:02.896Z,1028.02
2019-02-22T06:08:02.866Z,1028.12
2019-02-22T06:09:02.858Z,1028.15
2019-02-22T06:10:02.853Z,1028.15
2019-02-22T06:11:02.846Z,1028.23
2019-02-22T06:12:02.826Z,1028.29
2019-02-22T06:13:02.816Z,1028.35
2019-02-22T06:14:02.800Z,1028.41
2019-02-22T06:15:02.795Z,1028.44
2019-02-22T06:16:03.063Z,1028.49
2019-02-22T06:17:13.945Z,1028.54
2019-02-22T06:18:03.757Z,1028.56
2019-02-22T06:19:02.745Z,1028.59
2019-02-22T06:20:02.735Z,1028.67
2019-02-22T06:21:02.722Z,1028.72
2019-02-22T06:22:02.992Z,1028.71
2019-02-22T06:23:02.702Z,1028.76
2019-02-22T06:24:03.060Z,1028.84
2019-02-22T06:25:02.686Z,1028.82
2019-02-22T06:26:02.722Z,1028.87
2019-02-22T06:27:02.657Z,1028.92
2019-02-22T06:28:02.652Z,1028.93
2019-02-22T06:29:02.641Z,1028.97
2019-02-22T06:30:02.624Z,1028.97
2019-02-22T06:31:02.612Z,1029.03
2019-02-22T06:32:02.601Z,1029.03
2019-02-22T06:33:02.618Z,1029.06
2019-02-22T06:34:02.859Z,1029.08
2019-02-22T06:35:02.569Z,1029.14
2019-02-22T06:36:02.558Z,1029.18
2019-02-22T06:37:02.640Z,1029.18
2019-02-22T06:38:02.536Z,1029.26
2019-02-22T06:39:02.525Z,1029.30
2019-02-22T06:40:02.535Z,1029.34
2019-02-22T06:41:02.504Z,1029.39
2019-02-22T06:42:02.491Z,1029.46
2019-02-22T06:43:02.480Z,1029.47
2019-02-22T06:44:02.471Z,1029.56
2019-02-22T06:45:02.458Z,1029.74
2019-02-22T06:46:02.738Z,1029.60
2019-02-22T06:47:02.435Z,1029.63
2019-02-22T06:48:02.424Z,1029.67
2019-02-22T06:49:02.412Z,1029.70
2019-02-22T06:50:02.406Z,1029.66
2019-02-22T06:51:02.391Z,1029.64
2019-02-22T06:52:02.681Z,1029.71
2019-02-22T06:53:02.370Z,1029.75
2019-02-22T06:54:02.357Z,1029.76
2019-02-22T06:55:02.346Z,1029.79
2019-02-22T06:56:02.336Z,1029.86
2019-02-22T06:57:02.325Z,1029.88
2019-02-22T06:58:02.319Z,1029.86
2019-02-22T06:59:02.305Z,1029.93
2019-02-22T07:00:02.292Z,1029.94
2019-02-22T07:01:02.279Z,1029.96
2019-02-22T07:02:02.269Z,1030.02
2019-02-22T07:03:02.259Z,1029.99
2019-02-22T07:04:02.531Z,1030.01
2019-02-22T07:05:02.235Z,1030.07
2019-02-22T07:06:02.224Z,1030.11
2019-02-22T07:07:02.215Z,1030.14
2019-02-22T07:08:02.202Z,1030.14
2019-02-22T07:09:02.191Z,1030.17
2019-02-22T07:10:02.499Z,1030.18
2019-02-22T07:11:02.169Z,1030.25
2019-02-22T07:12:02.159Z,1030.29
2019-02-22T07:13:02.148Z,1030.28
2019-02-22T07:14:02.138Z,1030.33
2019-02-22T07:15:02.125Z,1030.35
2019-02-22T07:16:02.391Z,1030.44
2019-02-22T07:17:02.103Z,1030.50
2019-02-22T07:18:02.092Z,1030.55
2019-02-22T07:19:02.081Z,1030.59
2019-02-22T07:20:02.069Z,1030.69
2019-02-22T07:21:02.063Z,1030.66
2019-02-22T07:22:02.367Z,1030.68
2019-02-22T07:23:02.037Z,1030.72
2019-02-22T07:24:02.785Z,1030.72
2019-02-22T07:25:02.016Z,1030.75
2019-02-22T07:26:02.006Z,1030.80
2019-02-22T07:27:01.992Z,1030.81
2019-02-22T07:28:02.269Z,1030.83
2019-02-22T07:29:01.973Z,1031.05
2019-02-22T07:30:01.960Z,1030.84
2019-02-22T07:31:01.948Z,1030.88
2019-02-22T07:32:05.922Z,1030.93
2019-02-22T07:33:01.927Z,1030.94
2019-02-22T07:34:02.191Z,1031.01
2019-02-22T07:35:01.906Z,1031.03
2019-02-22T07:36:01.894Z,1031.00
2019-02-22T07:37:01.905Z,1031.05
2019-02-22T07:38:01.870Z,1031.43
2019-02-22T07:39:01.859Z,1031.12
2019-02-22T07:40:02.174Z,1031.16
2019-02-22T07:41:01.838Z,1031.14
2019-02-22T07:42:01.826Z,1031.19
2019-02-22T07:43:07.946Z,1031.21
2019-02-22T07:44:02.803Z,1031.22
2019-02-22T07:45:01.793Z,1031.25
2019-02-22T07:46:02.899Z,1031.29
2019-02-22T07:47:01.771Z,1031.30
2019-02-22T07:48:01.761Z,1031.35
2019-02-22T07:49:01.749Z,1031.36
2019-02-22T07:50:01.738Z,1031.53
2019-02-22T07:51:01.727Z,1031.47
2019-02-22T07:52:01.993Z,1031.43
2019-02-22T07:53:01.704Z,1031.51
2019-02-22T07:54:01.695Z,1031.47
2019-02-22T07:55:01.682Z,1031.55
2019-02-22T07:56:01.671Z,1031.57
2019-02-22T07:57:01.660Z,1031.62
2019-02-22T07:58:01.941Z,1031.80
2019-02-22T07:59:03.092Z,1031.68
2019-02-22T08:00:01.627Z,1031.77
2019-02-22T08:01:01.616Z,1031.84
2019-02-22T08:02:01.605Z,1031.82
2019-02-22T08:03:01.593Z,1031.86
2019-02-22T08:04:01.590Z,1031.86
2019-02-22T08:05:01.573Z,1031.91
2019-02-22T08:06:01.561Z,1031.93
2019-02-22T08:07:01.549Z,1031.98
2019-02-22T08:08:01.543Z,1032.01
2019-02-22T08:09:01.528Z,1032.04
2019-02-22T08:10:01.792Z,1032.04
2019-02-22T08:11:01.505Z,1032.07
2019-02-22T08:12:01.495Z,1032.16
2019-02-22T08:13:01.483Z,1032.18
2019-02-22T08:14:01.473Z,1032.17
2019-02-22T08:15:01.462Z,1032.18
2019-02-22T08:16:01.736Z,1032.19
2019-02-22T08:17:01.438Z,1032.20
2019-02-22T08:18:01.428Z,1032.21
2019-02-22T08:19:02.032Z,1032.19
2019-02-22T08:20:01.405Z,1032.30
2019-02-22T08:21:01.395Z,1032.19
2019-02-22T08:22:03.578Z,1032.22
2019-02-22T08:23:01.372Z,1032.22
2019-02-22T08:24:01.362Z,1032.32
2019-02-22T08:25:01.354Z,1032.30
2019-02-22T08:26:01.339Z,1032.28
2019-02-22T08:27:01.328Z,1032.36
2019-02-22T08:28:01.632Z,1032.37
2019-02-22T08:29:01.306Z,1032.46
2019-02-22T08:30:01.294Z,1032.44
2019-02-22T08:31:01.284Z,1032.52
2019-02-22T08:32:01.281Z,1032.58
2019-02-22T08:33:01.261Z,1032.51
2019-02-22T08:34:01.529Z,1032.53
2019-02-22T08:35:01.241Z,1032.58
2019-02-22T08:36:01.227Z,1032.67
2019-02-22T08:37:01.216Z,1032.71
2019-02-22T08:38:01.208Z,1032.71
2019-02-22T08:39:01.194Z,1032.79
2019-02-22T08:40:02.366Z,1032.84
2019-02-22T08:41:01.173Z,1032.78
2019-02-22T08:42:01.173Z,1032.85
2019-02-22T08:43:01.154Z,1032.92
2019-02-22T08:44:01.140Z,1032.94
2019-02-22T08:45:01.129Z,1032.98
2019-02-22T08:46:01.141Z,1033.07
2019-02-22T08:47:01.105Z,1033.04
2019-02-22T08:48:01.096Z,1033.00
2019-02-22T08:49:01.086Z,1033.00
2019-02-22T08:50:01.074Z,1033.02
2019-02-22T08:51:01.063Z,1032.99
2019-02-22T08:52:01.385Z,1033.04
2019-02-22T08:53:01.040Z,1033.11
2019-02-22T08:54:01.029Z,1033.09
2019-02-22T08:55:01.018Z,1033.13
2019-02-22T08:56:01.007Z,1033.16
2019-02-22T08:57:00.996Z,1033.17
2019-02-22T08:58:01.275Z,1033.26
2019-02-22T08:59:00.973Z,1033.36
2019-02-22T09:00:00.962Z,1033.29
2019-02-22T09:01:00.951Z,1033.28
2019-02-22T09:02:00.939Z,1033.27
2019-02-22T09:03:00.949Z,1033.30
2019-02-22T09:04:01.196Z,1033.36
2019-02-22T09:05:00.907Z,1033.40
2019-02-22T09:06:00.897Z,1033.45
2019-02-22T09:07:00.885Z,1033.45
2019-02-22T09:08:00.875Z,1033.44
2019-02-22T09:09:00.862Z,1033.45
2019-02-22T09:10:00.857Z,1033.43
2019-02-22T09:11:01.013Z,1033.44
2019-02-22T09:12:00.829Z,1033.53
2019-02-22T09:13:00.818Z,1033.55
2019-02-22T09:14:00.807Z,1033.57
2019-02-22T09:15:00.800Z,1033.55
2019-02-22T09:16:01.110Z,1033.57
2019-02-22T09:17:00.775Z,1033.63
2019-02-22T09:18:00.774Z,1033.62
2019-02-22T09:19:00.751Z,1033.68
2019-02-22T09:20:00.740Z,1033.74
2019-02-22T09:21:00.730Z,1033.78
2019-02-22T09:22:00.726Z,1033.82
2019-02-22T09:23:00.712Z,1033.88
2019-02-22T09:24:00.697Z,1033.84
2019-02-22T09:25:00.685Z,1033.98
2019-02-22T09:26:00.675Z,1033.87
2019-02-22T09:27:00.663Z,1033.89
2019-02-22T09:28:00.930Z,1033.92
2019-02-22T09:29:00.641Z,1033.91
2019-02-22T09:30:00.640Z,1033.93
2019-02-22T09:31:00.623Z,1033.97
2019-02-22T09:32:00.607Z,1034.01
2019-02-22T09:33:00.596Z,1034.00
2019-02-22T09:34:00.608Z,1033.96
2019-02-22T09:35:00.580Z,1034.00
2019-02-22T09:36:00.564Z,1034.00
2019-02-22T09:37:00.552Z,1034.01
2019-02-22T09:38:00.543Z,1033.98
2019-02-22T09:39:00.533Z,1034.03
2019-02-22T09:40:00.529Z,1034.06
2019-02-22T09:41:00.511Z,1034.11
2019-02-22T09:42:00.496Z,1034.13
2019-02-22T09:43:00.486Z,1034.06
2019-02-22T09:44:00.474Z,1034.19
2019-02-22T09:45:00.465Z,1034.05
2019-02-22T09:46:00.823Z,1034.00
2019-02-22T09:47:00.441Z,1034.09
2019-02-22T09:48:00.431Z,1034.10
2019-02-22T09:49:00.428Z,1034.16
2019-02-22T09:50:00.409Z,1034.11
2019-02-22T09:51:00.400Z,1034.10
2019-02-22T09:52:00.670Z,1034.12
2019-02-22T09:53:00.375Z,1034.11
2019-02-22T09:54:00.366Z,1034.18
2019-02-22T09:55:00.413Z,1034.22
2019-02-22T09:56:00.342Z,1034.21
2019-02-22T09:57:02.002Z,1034.39
2019-02-22T09:58:00.326Z,1034.22
2019-02-22T09:59:00.309Z,1034.22
2019-02-22T10:00:00.339Z,1034.26
2019-02-22T10:01:00.287Z,1034.26
2019-02-22T10:02:00.276Z,1034.25
2019-02-22T10:03:00.264Z,1034.27
2019-02-22T10:04:00.532Z,1034.28
2019-02-22T10:05:00.426Z,1034.40
2019-02-22T10:06:00.232Z,1034.28
2019-02-22T10:07:00.220Z,1034.34
2019-02-22T10:08:00.210Z,1034.46
2019-02-22T10:09:00.198Z,1034.38
2019-02-22T10:10:00.452Z,1034.34
2019-02-22T10:11:00.175Z,1034.35
2019-02-22T10:12:00.166Z,1034.39
2019-02-22T10:13:00.160Z,1034.55
2019-02-22T10:14:06.813Z,1034.43
2019-02-22T10:15:01.252Z,1034.42
2019-02-22T10:16:00.125Z,1034.40
2019-02-22T10:17:00.109Z,1034.49
2019-02-22T10:18:00.101Z,1034.41
2019-02-22T10:19:00.090Z,1034.50
2019-02-22T10:20:01.637Z,1034.43
2019-02-22T10:21:00.344Z,1034.52
2019-02-22T10:22:00.054Z,1034.55
2019-02-22T10:23:00.043Z,1034.49
2019-02-22T10:24:00.033Z,1034.52
2019-02-22T10:25:00.020Z,1034.51
2019-02-22T10:26:00.015Z,1034.47
2019-02-22T10:27:00.278Z,1034.49
2019-02-22T10:27:59.992Z,1034.53
2019-02-22T10:28:59.981Z,1034.60
2019-02-22T10:29:59.965Z,1034.58
2019-02-22T10:30:59.955Z,1034.59
2019-02-22T10:31:59.943Z,1034.62
2019-02-22T10:32:59.939Z,1034.66
2019-02-22T10:33:59.921Z,1034.64
2019-02-22T10:34:59.913Z,1034.66
2019-02-22T10:35:59.899Z,1034.69
2019-02-22T10:36:59.888Z,1034.70
2019-02-22T10:37:59.876Z,1034.71
2019-02-22T10:39:00.187Z,1034.72
2019-02-22T10:39:59.855Z,1034.73
2019-02-22T10:40:59.845Z,1034.70
2019-02-22T10:41:59.833Z,1034.70
2019-02-22T10:42:59.822Z,1034.68
2019-02-22T10:43:59.809Z,1034.68
2019-02-22T10:45:00.193Z,1034.68
2019-02-22T10:45:59.796Z,1034.73
2019-02-22T10:46:59.778Z,1034.69
2019-02-22T10:47:59.766Z,1034.74
2019-02-22T10:48:59.755Z,1034.79
2019-02-22T10:49:59.745Z,1034.78
2019-02-22T10:51:00.009Z,1034.77
2019-02-22T10:51:59.723Z,1034.75
2019-02-22T10:53:02.484Z,1034.74
2019-02-22T10:53:59.700Z,1034.76
2019-02-22T10:54:59.688Z,1034.76
2019-02-22T10:55:59.679Z,1034.74
2019-02-22T10:56:59.955Z,1034.78
2019-02-22T10:57:59.656Z,1034.79
2019-02-22T10:58:59.644Z,1034.78
2019-02-22T10:59:59.634Z,1034.78
2019-02-22T11:00:59.623Z,1034.78
2019-02-22T11:01:59.614Z,1034.78
2019-02-22T11:02:59.924Z,1034.81
2019-02-22T11:03:59.589Z,1034.82
2019-02-22T11:04:59.580Z,1034.83
2019-02-22T11:05:59.566Z,1034.77
2019-02-22T11:06:59.559Z,1034.81
2019-02-22T11:07:59.549Z,1034.84
2019-02-22T11:08:59.811Z,1034.86
2019-02-22T11:09:59.523Z,1034.84
2019-02-22T11:10:59.512Z,1034.93
2019-02-22T11:11:59.501Z,1034.89
2019-02-22T11:12:59.491Z,1034.89
2019-02-22T11:13:59.479Z,1034.89
2019-02-22T11:14:59.760Z,1034.87
2019-02-22T11:15:59.457Z,1034.90
2019-02-22T11:16:59.446Z,1034.92
2019-02-22T11:17:59.434Z,1034.92
2019-02-22T11:18:59.424Z,1034.88
2019-02-22T11:19:59.413Z,1034.88
2019-02-22T11:20:59.411Z,1034.93
2019-02-22T11:21:59.391Z,1034.96
2019-02-22T11:22:59.383Z,1034.95
2019-02-22T11:23:59.369Z,1035.01
2019-02-22T11:24:59.365Z,1034.96
2019-02-22T11:25:59.347Z,1035.04
2019-02-22T11:26:59.614Z,1035.04
2019-02-22T11:27:59.326Z,1035.07
2019-02-22T11:28:59.314Z,1035.05
2019-02-22T11:29:59.304Z,1035.08
2019-02-22T11:30:59.295Z,1035.06
2019-02-22T11:31:59.286Z,1035.05
2019-02-22T11:32:59.555Z,1035.04
2019-02-22T11:33:59.258Z,1035.11
2019-02-22T11:34:59.248Z,1035.06
2019-02-22T11:35:59.238Z,1035.04
2019-02-22T11:36:59.226Z,1035.13
2019-02-22T11:37:59.216Z,1035.07
2019-02-22T11:38:59.482Z,1035.06
2019-02-22T11:39:59.192Z,1035.08
2019-02-22T11:40:59.182Z,1035.06
2019-02-22T11:41:59.171Z,1035.06
2019-02-22T11:42:59.160Z,1035.11
2019-02-22T11:43:59.149Z,1035.17
2019-02-22T11:44:59.467Z,1035.18
2019-02-22T11:45:59.144Z,1035.24
2019-02-22T11:46:59.115Z,1035.23
2019-02-22T11:48:08.717Z,1035.23
2019-02-22T11:49:00.100Z,1035.25
2019-02-22T11:49:59.082Z,1035.20
2019-02-22T11:50:59.395Z,1035.26
2019-02-22T11:51:59.061Z,1035.29
2019-02-22T11:52:59.050Z,1035.29
2019-02-22T11:53:59.039Z,1035.26
2019-02-22T11:54:59.027Z,1035.33
2019-02-22T11:55:59.089Z,1035.33
2019-02-22T11:56:59.281Z,1035.38
2019-02-22T11:57:58.994Z,1035.34
2019-02-22T11:58:58.985Z,1035.37
2019-02-22T11:59:58.977Z,1035.41
2019-02-22T12:00:58.963Z,1035.39
2019-02-22T12:01:58.954Z,1035.38
2019-02-22T12:02:59.214Z,1035.45
2019-02-22T12:03:58.929Z,1035.49
2019-02-22T12:04:58.918Z,1035.52